North Waltham, Massachusetts
Current Conditions -  °F | °C
As of 6:54 PM on Saturday 22 Nov 2014 (Local Time) from KBOS Reporting Station
Overcast Overcast  
Wind Chill: 30°   Ceiling: 6500
Heat Index: 40°   Visibility: 10mi
Dew Point: 16°   Wind: 21mph
Humidity: 38%   Direction: 230°SW
Pressure: 30.11"   Gusts: NA
Location:  42.3586°N, 71.0605°W
Report Text: KBOS 222354Z 23018KT 10SM FEW050 OVC065 04/M09 A3011 RMK AO2 PK WND 22027/2333 SLP194 T00441089 10067 20044 58010
Loading
Personal Weather Stations






























Interactive Weather Map New forecast layout! Learn more

10-Day Weather Forecast

Advertisements
Track Severe Weather on mobile